sensor_id;sensor_type;location;lat;lon;timestamp;temperature;humidity
65472;DHT22;52068;50.710;14.492;2023-01-10T00:00:26;23.18;40.76
65472;DHT22;52068;50.710;14.492;2023-01-10T00:02:56;23.00;41.07
65472;DHT22;52068;50.710;14.492;2023-01-10T00:05:21;22.84;41.19
65472;DHT22;52068;50.710;14.492;2023-01-10T00:07:47;22.70;41.46
65472;DHT22;52068;50.710;14.492;2023-01-10T00:10:12;22.55;41.73
65472;DHT22;52068;50.710;14.492;2023-01-10T00:12:38;22.42;42.12
65472;DHT22;52068;50.710;14.492;2023-01-10T00:15:22;22.32;42.17
65472;DHT22;52068;50.710;14.492;2023-01-10T00:17:47;22.22;41.85
65472;DHT22;52068;50.710;14.492;2023-01-10T00:20:13;22.15;42.39
65472;DHT22;52068;50.710;14.492;2023-01-10T00:22:39;22.08;42.83
65472;DHT22;52068;50.710;14.492;2023-01-10T00:25:04;22.11;42.87
65472;DHT22;52068;50.710;14.492;2023-01-10T00:27:30;22.14;42.75
65472;DHT22;52068;50.710;14.492;2023-01-10T00:29:55;22.19;42.57
65472;DHT22;52068;50.710;14.492;2023-01-10T00:32:22;22.21;42.29
65472;DHT22;52068;50.710;14.492;2023-01-10T00:34:47;22.21;42.79
65472;DHT22;52068;50.710;14.492;2023-01-10T00:37:13;22.18;42.70
65472;DHT22;52068;50.710;14.492;2023-01-10T00:39:39;22.12;42.86
65472;DHT22;52068;50.710;14.492;2023-01-10T00:42:05;22.08;42.89
65472;DHT22;52068;50.710;14.492;2023-01-10T00:44:49;22.05;43.01
65472;DHT22;52068;50.710;14.492;2023-01-10T00:47:14;22.00;43.26
65472;DHT22;52068;50.710;14.492;2023-01-10T00:49:40;21.98;43.36
65472;DHT22;52068;50.710;14.492;2023-01-10T00:52:06;21.94;43.47
65472;DHT22;52068;50.710;14.492;2023-01-10T00:54:31;21.87;43.51
65472;DHT22;52068;50.710;14.492;2023-01-10T00:56:57;21.85;43.80
65472;DHT22;52068;50.710;14.492;2023-01-10T00:59:22;21.80;43.76
65472;DHT22;52068;50.710;14.492;2023-01-10T01:01:49;21.75;44.09
65472;DHT22;52068;50.710;14.492;2023-01-10T01:04:14;21.70;44.41
65472;DHT22;52068;50.710;14.492;2023-01-10T01:06:42;21.80;44.11
65472;DHT22;52068;50.710;14.492;2023-01-10T01:09:07;22.22;43.03
65472;DHT22;52068;50.710;14.492;2023-01-10T01:11:33;22.79;42.31
65472;DHT22;52068;50.710;14.492;2023-01-10T01:13:58;23.48;41.16
65472;DHT22;52068;50.710;14.492;2023-01-10T01:16:23;24.09;39.76
65472;DHT22;52068;50.710;14.492;2023-01-10T01:18:49;24.49;38.80
65472;DHT22;52068;50.710;14.492;2023-01-10T01:21:15;24.77;38.07
65472;DHT22;52068;50.710;14.492;2023-01-10T01:23:40;24.91;37.74
65472;DHT22;52068;50.710;14.492;2023-01-10T01:26:06;24.87;37.76
65472;DHT22;52068;50.710;14.492;2023-01-10T01:28:32;24.75;38.07
65472;DHT22;52068;50.710;14.492;2023-01-10T01:30:57;24.64;38.10
65472;DHT22;52068;50.710;14.492;2023-01-10T01:33:23;24.46;38.40
65472;DHT22;52068;50.710;14.492;2023-01-10T01:35:48;24.27;38.73
65472;DHT22;52068;50.710;14.492;2023-01-10T01:38:15;24.09;39.04
65472;DHT22;52068;50.710;14.492;2023-01-10T01:40:41;23.98;39.33
65472;DHT22;52068;50.710;14.492;2023-01-10T01:43:27;23.76;39.63
65472;DHT22;52068;50.710;14.492;2023-01-10T01:45:54;23.59;39.95
65472;DHT22;52068;50.710;14.492;2023-01-10T01:48:38;23.44;40.24
65472;DHT22;52068;50.710;14.492;2023-01-10T01:51:13;23.25;40.60
65472;DHT22;52068;50.710;14.492;2023-01-10T01:53:49;23.08;40.87
65472;DHT22;52068;50.710;14.492;2023-01-10T01:56:29;22.94;40.95
65472;DHT22;52068;50.710;14.492;2023-01-10T01:59:07;22.79;41.06
65472;DHT22;52068;50.710;14.492;2023-01-10T02:01:37;22.69;41.23
65472;DHT22;52068;50.710;14.492;2023-01-10T02:04:12;22.57;41.65
65472;DHT22;52068;50.710;14.492;2023-01-10T02:06:40;22.45;42.16
65472;DHT22;52068;50.710;14.492;2023-01-10T02:09:19;22.42;42.42
65472;DHT22;52068;50.710;14.492;2023-01-10T02:11:46;22.43;42.51
65472;DHT22;52068;50.710;14.492;2023-01-10T02:14:13;22.52;42.30
65472;DHT22;52068;50.710;14.492;2023-01-10T02:16:39;22.55;42.09
65472;DHT22;52068;50.710;14.492;2023-01-10T02:19:12;22.59;41.92
65472;DHT22;52068;50.710;14.492;2023-01-10T02:24:30;22.46;42.30
65472;DHT22;52068;50.710;14.492;2023-01-10T02:27:17;22.41;42.55
65472;DHT22;52068;50.710;14.492;2023-01-10T02:40:20;21.95;43.33
65472;DHT22;52068;50.710;14.492;2023-01-10T02:45:35;21.84;43.65
65472;DHT22;52068;50.710;14.492;2023-01-10T02:48:00;21.75;43.82
65472;DHT22;52068;50.710;14.492;2023-01-10T02:53:17;22.45;42.37
65472;DHT22;52068;50.710;14.492;2023-01-10T03:01:07;24.85;38.16
65472;DHT22;52068;50.710;14.492;2023-01-10T03:03:42;25.39;37.02
65472;DHT22;52068;50.710;14.492;2023-01-10T03:06:40;25.55;36.68
65472;DHT22;52068;50.710;14.492;2023-01-10T03:09:25;25.46;36.85
65472;DHT22;52068;50.710;14.492;2023-01-10T03:12:00;25.29;37.04
65472;DHT22;52068;50.710;14.492;2023-01-10T03:14:28;25.04;37.43
65472;DHT22;52068;50.710;14.492;2023-01-10T03:16:59;24.84;37.71
65472;DHT22;52068;50.710;14.492;2023-01-10T03:19:32;24.63;38.14
65472;DHT22;52068;50.710;14.492;2023-01-10T03:22:01;24.46;38.47
65472;DHT22;52068;50.710;14.492;2023-01-10T03:24:33;24.26;38.81
65472;DHT22;52068;50.710;14.492;2023-01-10T03:27:08;24.05;39.21
65472;DHT22;52068;50.710;14.492;2023-01-10T03:29:44;23.85;39.54
65472;DHT22;52068;50.710;14.492;2023-01-10T03:32:13;23.65;39.98
65472;DHT22;52068;50.710;14.492;2023-01-10T03:34:39;23.50;40.37
65472;DHT22;52068;50.710;14.492;2023-01-10T03:40:08;23.13;40.82
65472;DHT22;52068;50.710;14.492;2023-01-10T03:45:38;22.83;41.33
65472;DHT22;52068;50.710;14.492;2023-01-10T03:48:05;22.73;41.54
65472;DHT22;52068;50.710;14.492;2023-01-10T03:50:32;22.59;41.90
65472;DHT22;52068;50.710;14.492;2023-01-10T03:52:58;22.51;42.07
65472;DHT22;52068;50.710;14.492;2023-01-10T03:55:26;22.45;42.16
65472;DHT22;52068;50.710;14.492;2023-01-10T03:57:52;22.49;42.19
65472;DHT22;52068;50.710;14.492;2023-01-10T04:00:18;22.55;41.95
65472;DHT22;52068;50.710;14.492;2023-01-10T04:02:43;22.62;41.99
65472;DHT22;52068;50.710;14.492;2023-01-10T04:05:09;22.67;41.98
65472;DHT22;52068;50.710;14.492;2023-01-10T04:07:35;22.66;41.90
65472;DHT22;52068;50.710;14.492;2023-01-10T04:10:04;22.64;42.05
65472;DHT22;52068;50.710;14.492;2023-01-10T04:12:30;22.63;42.27
65472;DHT22;52068;50.710;14.492;2023-01-10T04:14:55;22.60;42.40
65472;DHT22;52068;50.710;14.492;2023-01-10T04:17:21;22.48;42.71
65472;DHT22;52068;50.710;14.492;2023-01-10T04:19:46;22.39;42.60
65472;DHT22;52068;50.710;14.492;2023-01-10T04:22:12;22.28;42.70
65472;DHT22;52068;50.710;14.492;2023-01-10T04:24:37;22.19;42.57
65472;DHT22;52068;50.710;14.492;2023-01-10T04:27:03;22.08;43.24
65472;DHT22;52068;50.710;14.492;2023-01-10T04:29:29;22.00;43.44
65472;DHT22;52068;50.710;14.492;2023-01-10T04:31:54;21.92;43.43
65472;DHT22;52068;50.710;14.492;2023-01-10T04:34:20;21.88;43.71
65472;DHT22;52068;50.710;14.492;2023-01-10T04:36:46;21.87;43.66
65472;DHT22;52068;50.710;14.492;2023-01-10T04:39:11;21.83;43.76
65472;DHT22;52068;50.710;14.492;2023-01-10T04:41:37;21.75;43.72
65472;DHT22;52068;50.710;14.492;2023-01-10T04:44:03;21.80;43.72
65472;DHT22;52068;50.710;14.492;2023-01-10T04:46:28;21.90;43.44
65472;DHT22;52068;50.710;14.492;2023-01-10T04:48:54;22.08;43.22
65472;DHT22;52068;50.710;14.492;2023-01-10T04:51:20;22.25;42.79
65472;DHT22;52068;50.710;14.492;2023-01-10T04:53:45;22.35;42.49
65472;DHT22;52068;50.710;14.492;2023-01-10T04:56:16;22.46;42.14
65472;DHT22;52068;50.710;14.492;2023-01-10T04:58:42;22.48;42.40
65472;DHT22;52068;50.710;14.492;2023-01-10T05:01:12;22.46;42.53
65472;DHT22;52068;50.710;14.492;2023-01-10T05:03:38;22.41;42.73
65472;DHT22;52068;50.710;14.492;2023-01-10T05:06:04;22.35;42.86
65472;DHT22;52068;50.710;14.492;2023-01-10T05:08:30;22.28;42.96
65472;DHT22;52068;50.710;14.492;2023-01-10T05:10:55;22.19;43.11
65472;DHT22;52068;50.710;14.492;2023-01-10T05:13:20;22.12;43.16
65472;DHT22;52068;50.710;14.492;2023-01-10T05:15:46;22.05;43.50
65472;DHT22;52068;50.710;14.492;2023-01-10T05:18:11;21.98;43.55
65472;DHT22;52068;50.710;14.492;2023-01-10T05:20:37;21.94;43.64
65472;DHT22;52068;50.710;14.492;2023-01-10T05:23:02;21.87;43.71
65472;DHT22;52068;50.710;14.492;2023-01-10T05:25:28;21.81;43.99
65472;DHT22;52068;50.710;14.492;2023-01-10T05:27:53;21.85;43.84
65472;DHT22;52068;50.710;14.492;2023-01-10T05:30:19;22.25;43.23
65472;DHT22;52068;50.710;14.492;2023-01-10T05:32:45;23.00;41.89
65472;DHT22;52068;50.710;14.492;2023-01-10T05:35:11;23.99;39.81
65472;DHT22;52068;50.710;14.492;2023-01-10T05:37:36;25.08;37.79
65472;DHT22;52068;50.710;14.492;2023-01-10T05:40:02;26.01;36.03
65472;DHT22;52068;50.710;14.492;2023-01-10T05:42:28;26.64;34.80
65472;DHT22;52068;50.710;14.492;2023-01-10T05:44:53;26.94;34.22
65472;DHT22;52068;50.710;14.492;2023-01-10T05:47:18;26.92;34.14
65472;DHT22;52068;50.710;14.492;2023-01-10T05:49:44;26.74;34.32
65472;DHT22;52068;50.710;14.492;2023-01-10T05:52:09;26.44;34.76
65472;DHT22;52068;50.710;14.492;2023-01-10T05:54:34;26.03;35.45
65472;DHT22;52068;50.710;14.492;2023-01-10T05:57:00;25.70;35.94
65472;DHT22;52068;50.710;14.492;2023-01-10T05:59:25;25.38;36.56
65472;DHT22;52068;50.710;14.492;2023-01-10T06:01:50;25.11;37.01
65472;DHT22;52068;50.710;14.492;2023-01-10T06:04:16;24.83;37.40
65472;DHT22;52068;50.710;14.492;2023-01-10T06:06:41;24.59;37.84
65472;DHT22;52068;50.710;14.492;2023-01-10T06:09:06;24.37;38.11
65472;DHT22;52068;50.710;14.492;2023-01-10T06:11:32;24.13;38.60
65472;DHT22;52068;50.710;14.492;2023-01-10T06:14:01;23.98;39.11
65472;DHT22;52068;50.710;14.492;2023-01-10T06:16:26;23.81;39.31
65472;DHT22;52068;50.710;14.492;2023-01-10T06:18:52;23.64;39.77
65472;DHT22;52068;50.710;14.492;2023-01-10T06:21:17;23.47;40.22
65472;DHT22;52068;50.710;14.492;2023-01-10T06:23:43;23.28;40.22
65472;DHT22;52068;50.710;14.492;2023-01-10T06:26:08;23.11;40.51
65472;DHT22;52068;50.710;14.492;2023-01-10T06:28:34;22.99;41.09
65472;DHT22;52068;50.710;14.492;2023-01-10T06:30:59;22.84;41.35
65472;DHT22;52068;50.710;14.492;2023-01-10T06:33:24;22.74;41.65
65472;DHT22;52068;50.710;14.492;2023-01-10T06:35:51;22.64;41.86
65472;DHT22;52068;50.710;14.492;2023-01-10T06:38:16;22.60;41.54
65472;DHT22;52068;50.710;14.492;2023-01-10T06:40:42;22.63;41.85
65472;DHT22;52068;50.710;14.492;2023-01-10T06:43:08;22.63;41.67
65472;DHT22;52068;50.710;14.492;2023-01-10T06:45:33;22.69;41.70
65472;DHT22;52068;50.710;14.492;2023-01-10T06:47:58;22.69;41.65
65472;DHT22;52068;50.710;14.492;2023-01-10T06:50:24;22.69;41.74
65472;DHT22;52068;50.710;14.492;2023-01-10T06:52:57;22.66;41.75
65472;DHT22;52068;50.710;14.492;2023-01-10T06:55:23;22.60;41.98
65472;DHT22;52068;50.710;14.492;2023-01-10T06:57:56;22.52;41.97
65472;DHT22;52068;50.710;14.492;2023-01-10T07:00:23;22.42;42.32
65472;DHT22;52068;50.710;14.492;2023-01-10T07:02:48;22.36;42.48
65472;DHT22;52068;50.710;14.492;2023-01-10T07:05:14;22.26;42.77
65472;DHT22;52068;50.710;14.492;2023-01-10T07:07:39;22.19;42.94
65472;DHT22;52068;50.710;14.492;2023-01-10T07:10:05;22.09;43.03
65472;DHT22;52068;50.710;14.492;2023-01-10T07:12:30;22.04;43.49
65472;DHT22;52068;50.710;14.492;2023-01-10T07:14:56;21.98;43.69
65472;DHT22;52068;50.710;14.492;2023-01-10T07:17:21;21.94;43.85
65472;DHT22;52068;50.710;14.492;2023-01-10T07:19:47;22.04;43.65
65472;DHT22;52068;50.710;14.492;2023-01-10T07:22:12;22.49;42.93
65472;DHT22;52068;50.710;14.492;2023-01-10T07:24:37;23.15;41.63
65472;DHT22;52068;50.710;14.492;2023-01-10T07:27:03;23.89;40.12
65472;DHT22;52068;50.710;14.492;2023-01-10T07:29:28;24.41;38.85
65472;DHT22;52068;50.710;14.492;2023-01-10T07:31:53;24.64;38.25
65472;DHT22;52068;50.710;14.492;2023-01-10T07:34:19;24.78;37.97
65472;DHT22;52068;50.710;14.492;2023-01-10T07:36:44;24.77;37.90
65472;DHT22;52068;50.710;14.492;2023-01-10T07:39:10;24.75;37.97
65472;DHT22;52068;50.710;14.492;2023-01-10T07:41:35;24.84;37.89
65472;DHT22;52068;50.710;14.492;2023-01-10T07:44:03;24.98;37.54
65472;DHT22;52068;50.710;14.492;2023-01-10T07:46:29;24.85;37.69
65472;DHT22;52068;50.710;14.492;2023-01-10T07:48:54;24.59;36.72
65472;DHT22;52068;50.710;14.492;2023-01-10T07:51:20;24.39;36.97
65472;DHT22;52068;50.710;14.492;2023-01-10T07:53:45;24.17;37.20
65472;DHT22;52068;50.710;14.492;2023-01-10T07:56:11;23.96;37.24
65472;DHT22;52068;50.710;14.492;2023-01-10T07:58:36;23.68;35.28
65472;DHT22;52068;50.710;14.492;2023-01-10T08:01:03;23.30;35.41
65472;DHT22;52068;50.710;14.492;2023-01-10T08:03:29;23.14;37.06
65472;DHT22;52068;50.710;14.492;2023-01-10T08:06:06;24.43;37.20
65472;DHT22;52068;50.710;14.492;2023-01-10T08:08:33;26.51;34.08
65472;DHT22;52068;50.710;14.492;2023-01-10T08:10:59;28.49;30.94
65472;DHT22;52068;50.710;14.492;2023-01-10T08:13:27;30.02;28.77
65472;DHT22;52068;50.710;14.492;2023-01-10T08:15:52;31.15;27.30
65472;DHT22;52068;50.710;14.492;2023-01-10T08:18:19;32.10;26.28
65472;DHT22;52068;50.710;14.492;2023-01-10T08:20:44;32.88;25.22
65472;DHT22;52068;50.710;14.492;2023-01-10T08:23:13;33.30;24.78
65472;DHT22;52068;50.710;14.492;2023-01-10T08:25:38;33.41;24.59
65472;DHT22;52068;50.710;14.492;2023-01-10T08:28:04;33.22;24.85
65472;DHT22;52068;50.710;14.492;2023-01-10T08:30:30;32.88;25.22
65472;DHT22;52068;50.710;14.492;2023-01-10T08:32:55;32.53;25.81
65472;DHT22;52068;50.710;14.492;2023-01-10T08:35:21;32.14;26.19
65472;DHT22;52068;50.710;14.492;2023-01-10T08:37:46;31.70;26.85
65472;DHT22;52068;50.710;14.492;2023-01-10T08:40:12;31.25;27.58
65472;DHT22;52068;50.710;14.492;2023-01-10T08:42:37;30.83;28.37
65472;DHT22;52068;50.710;14.492;2023-01-10T08:45:03;30.33;28.78
65472;DHT22;52068;50.710;14.492;2023-01-10T08:47:29;29.92;29.36
65472;DHT22;52068;50.710;14.492;2023-01-10T08:49:54;29.47;29.97
65472;DHT22;52068;50.710;14.492;2023-01-10T08:52:20;29.07;30.52
65472;DHT22;52068;50.710;14.492;2023-01-10T08:54:46;28.62;31.01
65472;DHT22;52068;50.710;14.492;2023-01-10T08:57:11;28.26;31.45
65472;DHT22;52068;50.710;14.492;2023-01-10T08:59:37;27.90;32.02
65472;DHT22;52068;50.710;14.492;2023-01-10T09:02:02;27.54;32.62
65472;DHT22;52068;50.710;14.492;2023-01-10T09:04:29;27.26;33.11
65472;DHT22;52068;50.710;14.492;2023-01-10T09:06:54;26.95;33.59
65472;DHT22;52068;50.710;14.492;2023-01-10T09:09:20;26.67;34.05
65472;DHT22;52068;50.710;14.492;2023-01-10T09:11:45;26.40;34.52
65472;DHT22;52068;50.710;14.492;2023-01-10T09:14:11;26.13;34.87
65472;DHT22;52068;50.710;14.492;2023-01-10T09:16:36;25.92;35.35
65472;DHT22;52068;50.710;14.492;2023-01-10T09:19:02;25.67;35.84
65472;DHT22;52068;50.710;14.492;2023-01-10T09:21:27;25.41;36.25
65472;DHT22;52068;50.710;14.492;2023-01-10T09:23:53;25.21;36.71
65472;DHT22;52068;50.710;14.492;2023-01-10T09:26:18;24.98;37.14
65472;DHT22;52068;50.710;14.492;2023-01-10T09:28:44;24.80;37.52
65472;DHT22;52068;50.710;14.492;2023-01-10T09:31:09;24.59;37.78
65472;DHT22;52068;50.710;14.492;2023-01-10T09:33:36;24.40;38.21
65472;DHT22;52068;50.710;14.492;2023-01-10T09:36:01;24.23;38.52
65472;DHT22;52068;50.710;14.492;2023-01-10T09:38:27;24.12;38.87
65472;DHT22;52068;50.710;14.492;2023-01-10T09:44:05;24.12;39.08
65472;DHT22;52068;50.710;14.492;2023-01-10T09:46:59;24.24;38.94
65472;DHT22;52068;50.710;14.492;2023-01-10T09:52:21;24.34;38.74
65472;DHT22;52068;50.710;14.492;2023-01-10T09:54:50;24.32;38.24
65472;DHT22;52068;50.710;14.492;2023-01-10T09:57:19;24.27;38.41
65472;DHT22;52068;50.710;14.492;2023-01-10T09:59:46;24.17;38.61
65472;DHT22;52068;50.710;14.492;2023-01-10T10:04:41;23.93;39.02
65472;DHT22;52068;50.710;14.492;2023-01-10T10:07:12;23.82;39.21
65472;DHT22;52068;50.710;14.492;2023-01-10T10:09:38;23.71;39.44
65472;DHT22;52068;50.710;14.492;2023-01-10T10:17:56;23.35;40.06
65472;DHT22;52068;50.710;14.492;2023-01-10T10:20:30;23.23;40.03
65472;DHT22;52068;50.710;14.492;2023-01-10T10:25:40;23.10;40.82
65472;DHT22;52068;50.710;14.492;2023-01-10T10:36:52;23.74;39.68
65472;DHT22;52068;50.710;14.492;2023-01-10T10:39:21;23.81;39.41
65472;DHT22;52068;50.710;14.492;2023-01-10T10:41:50;23.82;39.30
65472;DHT22;52068;50.710;14.492;2023-01-10T10:44:31;23.85;39.14
65472;DHT22;52068;50.710;14.492;2023-01-10T10:46:58;23.78;39.43
65472;DHT22;52068;50.710;14.492;2023-01-10T10:49:48;23.71;39.40
65472;DHT22;52068;50.710;14.492;2023-01-10T10:52:24;23.62;39.22
65472;DHT22;52068;50.710;14.492;2023-01-10T10:54:51;23.51;39.41
65472;DHT22;52068;50.710;14.492;2023-01-10T10:57:18;23.41;39.45
65472;DHT22;52068;50.710;14.492;2023-01-10T10:59:47;23.31;39.62
65472;DHT22;52068;50.710;14.492;2023-01-10T11:02:40;23.21;39.67
65472;DHT22;52068;50.710;14.492;2023-01-10T11:05:15;23.06;40.15
65472;DHT22;52068;50.710;14.492;2023-01-10T11:07:41;23.00;40.60
65472;DHT22;52068;50.710;14.492;2023-01-10T11:10:21;23.17;40.60
65472;DHT22;52068;50.710;14.492;2023-01-10T11:13:01;23.72;40.00
65472;DHT22;52068;50.710;14.492;2023-01-10T11:18:21;25.22;37.11
65472;DHT22;52068;50.710;14.492;2023-01-10T11:20:51;25.76;36.14
65472;DHT22;52068;50.710;14.492;2023-01-10T11:25:55;26.33;35.13
65472;DHT22;52068;50.710;14.492;2023-01-10T11:28:24;26.27;35.15
65472;DHT22;52068;50.710;14.492;2023-01-10T11:30:50;26.13;35.36
65472;DHT22;52068;50.710;14.492;2023-01-10T11:33:25;25.94;35.76
65472;DHT22;52068;50.710;14.492;2023-01-10T11:36:00;25.73;36.03
65472;DHT22;52068;50.710;14.492;2023-01-10T11:38:26;25.53;36.31
65472;DHT22;52068;50.710;14.492;2023-01-10T11:41:02;25.39;36.63
65472;DHT22;52068;50.710;14.492;2023-01-10T11:43:45;25.19;36.96
65472;DHT22;52068;50.710;14.492;2023-01-10T11:49:22;24.80;37.54
65472;DHT22;52068;50.710;14.492;2023-01-10T11:51:31;24.59;37.78
65472;DHT22;52068;50.710;14.492;2023-01-10T11:53:59;24.36;37.78
65472;DHT22;52068;50.710;14.492;2023-01-10T11:56:33;24.19;38.18
65472;DHT22;52068;50.710;14.492;2023-01-10T11:59:10;23.96;38.36
65472;DHT22;52068;50.710;14.492;2023-01-10T12:02:04;23.81;38.87
65472;DHT22;52068;50.710;14.492;2023-01-10T12:04:32;23.68;39.32
65472;DHT22;52068;50.710;14.492;2023-01-10T12:07:03;23.84;39.19
65472;DHT22;52068;50.710;14.492;2023-01-10T12:09:40;24.33;38.56
65472;DHT22;52068;50.710;14.492;2023-01-10T12:12:18;25.01;37.41
65472;DHT22;52068;50.710;14.492;2023-01-10T12:14:44;25.69;36.27
65472;DHT22;52068;50.710;14.492;2023-01-10T12:17:25;26.23;35.47
65472;DHT22;52068;50.710;14.492;2023-01-10T12:19:52;26.56;34.95
65472;DHT22;52068;50.710;14.492;2023-01-10T12:22:24;26.62;34.92
65472;DHT22;52068;50.710;14.492;2023-01-10T12:24:52;26.51;35.08
65472;DHT22;52068;50.710;14.492;2023-01-10T12:27:18;26.43;35.01
65472;DHT22;52068;50.710;14.492;2023-01-10T12:32:26;26.10;35.52
65472;DHT22;52068;50.710;14.492;2023-01-10T12:34:59;25.87;36.03
65472;DHT22;52068;50.710;14.492;2023-01-10T12:37:33;25.66;36.34
65472;DHT22;52068;50.710;14.492;2023-01-10T12:40:36;25.41;36.97
65472;DHT22;52068;50.710;14.492;2023-01-10T12:43:06;25.21;37.44
65472;DHT22;52068;50.710;14.492;2023-01-10T12:45:58;24.98;37.87
65472;DHT22;52068;50.710;14.492;2023-01-10T12:48:49;24.78;38.35
65472;DHT22;52068;50.710;14.492;2023-01-10T12:51:19;24.61;38.42
65472;DHT22;52068;50.710;14.492;2023-01-10T12:53:51;24.44;38.21
65472;DHT22;52068;50.710;14.492;2023-01-10T12:56:18;24.30;39.00
65472;DHT22;52068;50.710;14.492;2023-01-10T12:58:48;24.13;39.32
65472;DHT22;52068;50.710;14.492;2023-01-10T13:01:17;24.01;39.82
65472;DHT22;52068;50.710;14.492;2023-01-10T13:03:45;23.86;39.95
65472;DHT22;52068;50.710;14.492;2023-01-10T13:06:32;23.74;40.17
65472;DHT22;52068;50.710;14.492;2023-01-10T13:08:59;23.59;40.37
65472;DHT22;52068;50.710;14.492;2023-01-10T13:11:33;23.52;40.62
65472;DHT22;52068;50.710;14.492;2023-01-10T13:14:01;23.61;40.40
65472;DHT22;52068;50.710;14.492;2023-01-10T13:16:42;23.81;40.30
65472;DHT22;52068;50.710;14.492;2023-01-10T13:21:38;24.20;39.34
65472;DHT22;52068;50.710;14.492;2023-01-10T13:26:51;24.40;38.90
65472;DHT22;52068;50.710;14.492;2023-01-10T13:29:24;24.40;38.93
65472;DHT22;52068;50.710;14.492;2023-01-10T13:31:50;24.39;38.90
65472;DHT22;52068;50.710;14.492;2023-01-10T13:34:24;24.36;39.18
65472;DHT22;52068;50.710;14.492;2023-01-10T13:36:55;24.30;39.12
65472;DHT22;52068;50.710;14.492;2023-01-10T13:39:42;24.19;39.52
65472;DHT22;52068;50.710;14.492;2023-01-10T13:42:30;24.03;39.30
65472;DHT22;52068;50.710;14.492;2023-01-10T13:45:22;23.89;39.79
65472;DHT22;52068;50.710;14.492;2023-01-10T13:52:47;23.59;40.27
65472;DHT22;52068;50.710;14.492;2023-01-10T14:03:55;23.33;40.94
65472;DHT22;52068;50.710;14.492;2023-01-10T14:08:54;23.84;40.24
65472;DHT22;52068;50.710;14.492;2023-01-10T14:11:22;24.17;39.67
65472;DHT22;52068;50.710;14.492;2023-01-10T14:13:52;24.44;39.00
65472;DHT22;52068;50.710;14.492;2023-01-10T14:16:35;24.60;38.79
65472;DHT22;52068;50.710;14.492;2023-01-10T14:19:04;24.67;38.20
65472;DHT22;52068;50.710;14.492;2023-01-10T14:21:37;24.74;38.00
65472;DHT22;52068;50.710;14.492;2023-01-10T14:24:05;24.70;38.42
65472;DHT22;52068;50.710;14.492;2023-01-10T14:26:42;24.59;38.52
65472;DHT22;52068;50.710;14.492;2023-01-10T14:29:14;24.47;38.59
65472;DHT22;52068;50.710;14.492;2023-01-10T14:31:45;24.36;38.84
65472;DHT22;52068;50.710;14.492;2023-01-10T14:34:18;24.20;38.40
65472;DHT22;52068;50.710;14.492;2023-01-10T14:37:13;24.02;38.83
65472;DHT22;52068;50.710;14.492;2023-01-10T14:39:41;23.86;38.90
65472;DHT22;52068;50.710;14.492;2023-01-10T14:42:12;23.68;39.64
65472;DHT22;52068;50.710;14.492;2023-01-10T14:44:58;23.51;39.64
65472;DHT22;52068;50.710;14.492;2023-01-10T14:47:28;23.38;40.19
65472;DHT22;52068;50.710;14.492;2023-01-10T14:49:54;23.25;39.76
65472;DHT22;52068;50.710;14.492;2023-01-10T14:52:27;23.24;40.61
65472;DHT22;52068;50.710;14.492;2023-01-10T14:55:28;23.54;40.23
65472;DHT22;52068;50.710;14.492;2023-01-10T14:58:01;23.99;39.50
65472;DHT22;52068;50.710;14.492;2023-01-10T15:00:30;24.54;38.66
65472;DHT22;52068;50.710;14.492;2023-01-10T15:02:57;25.07;37.62
65472;DHT22;52068;50.710;14.492;2023-01-10T15:05:25;25.45;36.90
65472;DHT22;52068;50.710;14.492;2023-01-10T15:07:55;25.65;36.50
65472;DHT22;52068;50.710;14.492;2023-01-10T15:10:41;25.65;36.46
65472;DHT22;52068;50.710;14.492;2023-01-10T15:13:07;25.65;36.56
65472;DHT22;52068;50.710;14.492;2023-01-10T15:15:35;25.58;36.81
65472;DHT22;52068;50.710;14.492;2023-01-10T15:18:05;25.42;36.94
65472;DHT22;52068;50.710;14.492;2023-01-10T15:20:32;25.25;37.17
65472;DHT22;52068;50.710;14.492;2023-01-10T15:22:59;25.15;37.28
65472;DHT22;52068;50.710;14.492;2023-01-10T15:25:27;24.98;37.54
65472;DHT22;52068;50.710;14.492;2023-01-10T15:27:54;24.80;37.61
65472;DHT22;52068;50.710;14.492;2023-01-10T15:30:23;24.61;38.16
65472;DHT22;52068;50.710;14.492;2023-01-10T15:32:51;24.40;38.40
65472;DHT22;52068;50.710;14.492;2023-01-10T15:35:20;24.17;38.75
65472;DHT22;52068;50.710;14.492;2023-01-10T15:38:01;23.95;39.09
65472;DHT22;52068;50.710;14.492;2023-01-10T15:40:32;23.78;39.38
65472;DHT22;52068;50.710;14.492;2023-01-10T15:45:43;23.45;40.17
65472;DHT22;52068;50.710;14.492;2023-01-10T15:48:28;23.58;40.34
65472;DHT22;52068;50.710;14.492;2023-01-10T15:51:01;24.03;39.64
65472;DHT22;52068;50.710;14.492;2023-01-10T15:56:17;25.31;37.08
65472;DHT22;52068;50.710;14.492;2023-01-10T15:58:45;25.86;36.03
65472;DHT22;52068;50.710;14.492;2023-01-10T16:01:14;26.21;35.42
65472;DHT22;52068;50.710;14.492;2023-01-10T16:03:46;26.34;35.17
65472;DHT22;52068;50.710;14.492;2023-01-10T16:06:28;26.30;35.25
65472;DHT22;52068;50.710;14.492;2023-01-10T16:08:56;26.12;35.51
65472;DHT22;52068;50.710;14.492;2023-01-10T16:11:38;25.90;35.89
65472;DHT22;52068;50.710;14.492;2023-01-10T16:14:23;25.70;36.29
65472;DHT22;52068;50.710;14.492;2023-01-10T16:16:49;25.46;36.87
65472;DHT22;52068;50.710;14.492;2023-01-10T16:19:14;25.28;37.08
65472;DHT22;52068;50.710;14.492;2023-01-10T16:21:43;25.04;37.33
65472;DHT22;52068;50.710;14.492;2023-01-10T16:24:19;24.84;37.62
65472;DHT22;52068;50.710;14.492;2023-01-10T16:26:46;24.63;37.76
65472;DHT22;52068;50.710;14.492;2023-01-10T16:29:12;24.44;38.09
65472;DHT22;52068;50.710;14.492;2023-01-10T16:31:38;24.24;38.38
65472;DHT22;52068;50.710;14.492;2023-01-10T16:34:03;24.08;38.77
65472;DHT22;52068;50.710;14.492;2023-01-10T16:36:28;23.86;39.26
65472;DHT22;52068;50.710;14.492;2023-01-10T16:38:54;23.71;39.63
65472;DHT22;52068;50.710;14.492;2023-01-10T16:41:19;23.75;39.78
65472;DHT22;52068;50.710;14.492;2023-01-10T16:44:03;23.93;39.66
65472;DHT22;52068;50.710;14.492;2023-01-10T16:46:29;24.37;38.75
65472;DHT22;52068;50.710;14.492;2023-01-10T16:48:55;24.96;37.59
65472;DHT22;52068;50.710;14.492;2023-01-10T16:51:27;25.46;36.64
65472;DHT22;52068;50.710;14.492;2023-01-10T16:53:53;25.94;35.86
65472;DHT22;52068;50.710;14.492;2023-01-10T16:56:23;26.18;35.41
65472;DHT22;52068;50.710;14.492;2023-01-10T16:58:50;26.21;35.30
65472;DHT22;52068;50.710;14.492;2023-01-10T17:01:20;26.14;35.33